sensor_id;sensor_type;location;lat;lon;timestamp;P1;durP1;ratioP1;P2;durP2;ratioP2
13374;SDS011;6756;51.354;15.754;2023-07-31T00:02:01;4.10;;;3.10;;
13374;SDS011;6756;51.354;15.754;2023-07-31T00:06:02;3.97;;;2.97;;
13374;SDS011;6756;51.354;15.754;2023-07-31T00:10:03;7.17;;;3.17;;
13374;SDS011;6756;51.354;15.754;2023-07-31T00:14:04;4.73;;;2.60;;
13374;SDS011;6756;51.354;15.754;2023-07-31T00:18:04;6.87;;;3.10;;
13374;SDS011;6756;51.354;15.754;2023-07-31T00:22:05;5.17;;;2.80;;
13374;SDS011;6756;51.354;15.754;2023-07-31T00:26:06;6.97;;;3.10;;
13374;SDS011;6756;51.354;15.754;2023-07-31T00:30:07;5.10;;;3.70;;
13374;SDS011;6756;51.354;15.754;2023-07-31T00:34:08;6.10;;;2.77;;
13374;SDS011;6756;51.354;15.754;2023-07-31T00:38:09;4.50;;;2.83;;
13374;SDS011;6756;51.354;15.754;2023-07-31T00:42:09;5.97;;;3.07;;
13374;SDS011;6756;51.354;15.754;2023-07-31T00:46:10;6.60;;;3.10;;
13374;SDS011;6756;51.354;15.754;2023-07-31T00:50:11;4.27;;;3.10;;
13374;SDS011;6756;51.354;15.754;2023-07-31T00:54:12;3.37;;;2.73;;
13374;SDS011;6756;51.354;15.754;2023-07-31T00:58:13;7.53;;;3.10;;
13374;SDS011;6756;51.354;15.754;2023-07-31T01:02:14;5.37;;;3.60;;
13374;SDS011;6756;51.354;15.754;2023-07-31T01:06:19;7.90;;;3.33;;
13374;SDS011;6756;51.354;15.754;2023-07-31T01:10:34;7.10;;;3.80;;
13374;SDS011;6756;51.354;15.754;2023-07-31T01:19:05;5.27;;;3.23;;
13374;SDS011;6756;51.354;15.754;2023-07-31T01:27:30;4.40;;;3.10;;
13374;SDS011;6756;51.354;15.754;2023-07-31T01:31:36;4.97;;;3.10;;
13374;SDS011;6756;51.354;15.754;2023-07-31T01:35:38;3.87;;;3.00;;
13374;SDS011;6756;51.354;15.754;2023-07-31T01:39:40;5.97;;;3.47;;
13374;SDS011;6756;51.354;15.754;2023-07-31T01:43:40;4.40;;;3.10;;
13374;SDS011;6756;51.354;15.754;2023-07-31T01:47:41;5.80;;;3.37;;
13374;SDS011;6756;51.354;15.754;2023-07-31T01:51:42;5.80;;;3.13;;
13374;SDS011;6756;51.354;15.754;2023-07-31T01:55:42;7.70;;;3.30;;
13374;SDS011;6756;51.354;15.754;2023-07-31T01:59:43;4.93;;;3.10;;
13374;SDS011;6756;51.354;15.754;2023-07-31T02:03:44;6.50;;;2.93;;
13374;SDS011;6756;51.354;15.754;2023-07-31T02:07:45;9.50;;;3.63;;
13374;SDS011;6756;51.354;15.754;2023-07-31T02:11:46;3.90;;;2.97;;
13374;SDS011;6756;51.354;15.754;2023-07-31T02:15:47;6.37;;;3.33;;
13374;SDS011;6756;51.354;15.754;2023-07-31T02:19:48;11.07;;;4.03;;
13374;SDS011;6756;51.354;15.754;2023-07-31T02:23:49;4.73;;;2.93;;
13374;SDS011;6756;51.354;15.754;2023-07-31T02:27:49;7.07;;;3.37;;
13374;SDS011;6756;51.354;15.754;2023-07-31T02:31:50;5.70;;;3.37;;
13374;SDS011;6756;51.354;15.754;2023-07-31T02:35:51;5.57;;;3.07;;
13374;SDS011;6756;51.354;15.754;2023-07-31T02:39:51;6.53;;;3.17;;
13374;SDS011;6756;51.354;15.754;2023-07-31T02:43:52;10.93;;;3.73;;
13374;SDS011;6756;51.354;15.754;2023-07-31T02:47:53;5.53;;;3.60;;
13374;SDS011;6756;51.354;15.754;2023-07-31T02:51:54;6.60;;;3.27;;
13374;SDS011;6756;51.354;15.754;2023-07-31T02:55:54;5.77;;;3.20;;
13374;SDS011;6756;51.354;15.754;2023-07-31T02:59:55;4.13;;;3.70;;
13374;SDS011;6756;51.354;15.754;2023-07-31T03:03:56;7.33;;;3.70;;
13374;SDS011;6756;51.354;15.754;2023-07-31T03:07:57;8.80;;;3.80;;
13374;SDS011;6756;51.354;15.754;2023-07-31T03:11:57;7.07;;;3.90;;
13374;SDS011;6756;51.354;15.754;2023-07-31T03:15:58;8.87;;;3.63;;
13374;SDS011;6756;51.354;15.754;2023-07-31T03:19:59;9.30;;;3.87;;
13374;SDS011;6756;51.354;15.754;2023-07-31T03:24:00;4.63;;;3.40;;
13374;SDS011;6756;51.354;15.754;2023-07-31T03:28:00;6.97;;;3.47;;
13374;SDS011;6756;51.354;15.754;2023-07-31T03:32:01;8.40;;;3.83;;
13374;SDS011;6756;51.354;15.754;2023-07-31T03:36:02;7.63;;;3.63;;
13374;SDS011;6756;51.354;15.754;2023-07-31T03:40:03;7.43;;;3.80;;
13374;SDS011;6756;51.354;15.754;2023-07-31T03:44:05;6.30;;;3.13;;
13374;SDS011;6756;51.354;15.754;2023-07-31T03:48:05;6.60;;;3.50;;
13374;SDS011;6756;51.354;15.754;2023-07-31T03:52:07;9.70;;;3.33;;
13374;SDS011;6756;51.354;15.754;2023-07-31T03:56:08;6.90;;;3.03;;
13374;SDS011;6756;51.354;15.754;2023-07-31T04:00:10;8.47;;;3.30;;
13374;SDS011;6756;51.354;15.754;2023-07-31T04:04:11;8.10;;;3.23;;
13374;SDS011;6756;51.354;15.754;2023-07-31T04:08:11;7.60;;;2.60;;
13374;SDS011;6756;51.354;15.754;2023-07-31T04:12:12;4.87;;;2.53;;
13374;SDS011;6756;51.354;15.754;2023-07-31T04:16:13;5.60;;;2.40;;
13374;SDS011;6756;51.354;15.754;2023-07-31T04:20:13;4.50;;;2.63;;
13374;SDS011;6756;51.354;15.754;2023-07-31T04:24:14;4.87;;;1.97;;
13374;SDS011;6756;51.354;15.754;2023-07-31T04:28:15;3.93;;;2.07;;
13374;SDS011;6756;51.354;15.754;2023-07-31T04:32:16;5.03;;;2.07;;
13374;SDS011;6756;51.354;15.754;2023-07-31T04:36:17;3.97;;;2.07;;
13374;SDS011;6756;51.354;15.754;2023-07-31T04:40:17;4.40;;;2.27;;
13374;SDS011;6756;51.354;15.754;2023-07-31T04:44:18;5.47;;;1.97;;
13374;SDS011;6756;51.354;15.754;2023-07-31T04:48:19;4.60;;;2.00;;
13374;SDS011;6756;51.354;15.754;2023-07-31T04:52:20;7.03;;;2.10;;
13374;SDS011;6756;51.354;15.754;2023-07-31T04:56:20;6.87;;;2.33;;
13374;SDS011;6756;51.354;15.754;2023-07-31T05:00:21;2.80;;;1.80;;
13374;SDS011;6756;51.354;15.754;2023-07-31T05:04:22;4.00;;;2.17;;
13374;SDS011;6756;51.354;15.754;2023-07-31T05:08:22;4.13;;;1.50;;
13374;SDS011;6756;51.354;15.754;2023-07-31T05:12:23;3.20;;;1.70;;
13374;SDS011;6756;51.354;15.754;2023-07-31T05:16:24;5.10;;;1.83;;
13374;SDS011;6756;51.354;15.754;2023-07-31T05:20:24;3.63;;;1.83;;
13374;SDS011;6756;51.354;15.754;2023-07-31T05:24:25;4.40;;;1.60;;
13374;SDS011;6756;51.354;15.754;2023-07-31T05:28:26;5.67;;;1.80;;
13374;SDS011;6756;51.354;15.754;2023-07-31T05:32:26;5.27;;;1.53;;
13374;SDS011;6756;51.354;15.754;2023-07-31T05:36:27;5.20;;;1.67;;
13374;SDS011;6756;51.354;15.754;2023-07-31T05:40:28;3.67;;;1.50;;
13374;SDS011;6756;51.354;15.754;2023-07-31T05:44:28;3.03;;;1.60;;
13374;SDS011;6756;51.354;15.754;2023-07-31T05:48:29;5.23;;;1.60;;
13374;SDS011;6756;51.354;15.754;2023-07-31T05:52:30;2.90;;;1.70;;
13374;SDS011;6756;51.354;15.754;2023-07-31T05:56:30;3.60;;;1.60;;
13374;SDS011;6756;51.354;15.754;2023-07-31T06:00:33;4.07;;;1.70;;
13374;SDS011;6756;51.354;15.754;2023-07-31T06:04:34;7.27;;;1.60;;
13374;SDS011;6756;51.354;15.754;2023-07-31T06:08:35;4.47;;;1.83;;
13374;SDS011;6756;51.354;15.754;2023-07-31T06:12:35;4.77;;;1.40;;
13374;SDS011;6756;51.354;15.754;2023-07-31T06:16:36;7.43;;;1.60;;
13374;SDS011;6756;51.354;15.754;2023-07-31T06:20:37;4.57;;;1.50;;
13374;SDS011;6756;51.354;15.754;2023-07-31T06:24:40;4.23;;;1.47;;
13374;SDS011;6756;51.354;15.754;2023-07-31T06:28:41;2.60;;;1.00;;
13374;SDS011;6756;51.354;15.754;2023-07-31T06:32:42;5.20;;;1.40;;
13374;SDS011;6756;51.354;15.754;2023-07-31T06:36:43;4.80;;;1.33;;
13374;SDS011;6756;51.354;15.754;2023-07-31T06:40:44;9.57;;;2.03;;
13374;SDS011;6756;51.354;15.754;2023-07-31T06:44:44;3.17;;;1.60;;
13374;SDS011;6756;51.354;15.754;2023-07-31T06:48:45;4.03;;;1.60;;
13374;SDS011;6756;51.354;15.754;2023-07-31T06:52:46;6.67;;;1.80;;
13374;SDS011;6756;51.354;15.754;2023-07-31T06:56:47;3.77;;;1.50;;
13374;SDS011;6756;51.354;15.754;2023-07-31T07:00:47;3.37;;;1.57;;
13374;SDS011;6756;51.354;15.754;2023-07-31T07:04:49;3.60;;;1.60;;
13374;SDS011;6756;51.354;15.754;2023-07-31T07:08:50;2.83;;;1.20;;
13374;SDS011;6756;51.354;15.754;2023-07-31T07:12:51;3.50;;;1.53;;
13374;SDS011;6756;51.354;15.754;2023-07-31T07:16:52;2.63;;;1.50;;
13374;SDS011;6756;51.354;15.754;2023-07-31T07:20:53;2.53;;;1.10;;
13374;SDS011;6756;51.354;15.754;2023-07-31T07:24:54;2.30;;;1.40;;
13374;SDS011;6756;51.354;15.754;2023-07-31T07:28:55;3.37;;;1.43;;
13374;SDS011;6756;51.354;15.754;2023-07-31T07:32:56;5.30;;;2.00;;
13374;SDS011;6756;51.354;15.754;2023-07-31T07:36:56;3.80;;;1.53;;
13374;SDS011;6756;51.354;15.754;2023-07-31T07:40:57;2.67;;;1.60;;
13374;SDS011;6756;51.354;15.754;2023-07-31T07:44:58;3.33;;;1.73;;
13374;SDS011;6756;51.354;15.754;2023-07-31T07:48:59;3.80;;;1.20;;
13374;SDS011;6756;51.354;15.754;2023-07-31T07:53:00;4.30;;;1.37;;
13374;SDS011;6756;51.354;15.754;2023-07-31T07:57:00;2.67;;;1.30;;
13374;SDS011;6756;51.354;15.754;2023-07-31T08:01:01;3.43;;;1.40;;
13374;SDS011;6756;51.354;15.754;2023-07-31T08:05:02;4.03;;;1.70;;
13374;SDS011;6756;51.354;15.754;2023-07-31T08:09:03;3.40;;;1.70;;
13374;SDS011;6756;51.354;15.754;2023-07-31T08:13:06;5.00;;;1.37;;
13374;SDS011;6756;51.354;15.754;2023-07-31T08:17:06;1.87;;;1.30;;
13374;SDS011;6756;51.354;15.754;2023-07-31T08:21:07;2.93;;;1.47;;
13374;SDS011;6756;51.354;15.754;2023-07-31T08:25:08;3.83;;;1.20;;
13374;SDS011;6756;51.354;15.754;2023-07-31T08:29:09;3.00;;;1.33;;
13374;SDS011;6756;51.354;15.754;2023-07-31T08:33:10;2.50;;;1.60;;
13374;SDS011;6756;51.354;15.754;2023-07-31T08:37:11;2.90;;;1.60;;
13374;SDS011;6756;51.354;15.754;2023-07-31T08:41:11;1.90;;;1.43;;
13374;SDS011;6756;51.354;15.754;2023-07-31T08:45:14;2.30;;;1.30;;
13374;SDS011;6756;51.354;15.754;2023-07-31T08:49:16;2.00;;;1.43;;
13374;SDS011;6756;51.354;15.754;2023-07-31T08:53:17;1.87;;;1.50;;
13374;SDS011;6756;51.354;15.754;2023-07-31T08:57:18;4.93;;;1.63;;
13374;SDS011;6756;51.354;15.754;2023-07-31T09:01:20;4.37;;;1.50;;
13374;SDS011;6756;51.354;15.754;2023-07-31T09:05:21;4.13;;;1.47;;
13374;SDS011;6756;51.354;15.754;2023-07-31T09:09:23;1.97;;;1.47;;
13374;SDS011;6756;51.354;15.754;2023-07-31T09:13:24;2.33;;;1.60;;
13374;SDS011;6756;51.354;15.754;2023-07-31T09:17:32;4.63;;;1.50;;
13374;SDS011;6756;51.354;15.754;2023-07-31T09:21:34;3.27;;;1.60;;
13374;SDS011;6756;51.354;15.754;2023-07-31T09:25:48;3.33;;;1.53;;
13374;SDS011;6756;51.354;15.754;2023-07-31T09:29:58;4.67;;;1.30;;
13374;SDS011;6756;51.354;15.754;2023-07-31T09:33:59;2.50;;;1.60;;
13374;SDS011;6756;51.354;15.754;2023-07-31T09:38:03;2.47;;;1.60;;
13374;SDS011;6756;51.354;15.754;2023-07-31T09:42:05;3.90;;;1.47;;
13374;SDS011;6756;51.354;15.754;2023-07-31T09:46:12;3.57;;;1.53;;
13374;SDS011;6756;51.354;15.754;2023-07-31T09:50:14;4.80;;;1.70;;
13374;SDS011;6756;51.354;15.754;2023-07-31T09:54:18;4.47;;;1.47;;
13374;SDS011;6756;51.354;15.754;2023-07-31T09:58:19;2.50;;;1.57;;
13374;SDS011;6756;51.354;15.754;2023-07-31T10:02:21;2.93;;;1.40;;
13374;SDS011;6756;51.354;15.754;2023-07-31T10:06:23;3.43;;;1.60;;
13374;SDS011;6756;51.354;15.754;2023-07-31T10:10:25;3.80;;;1.77;;
13374;SDS011;6756;51.354;15.754;2023-07-31T10:14:27;4.30;;;1.70;;
13374;SDS011;6756;51.354;15.754;2023-07-31T10:18:29;2.87;;;1.70;;
13374;SDS011;6756;51.354;15.754;2023-07-31T10:22:30;3.20;;;1.43;;
13374;SDS011;6756;51.354;15.754;2023-07-31T10:26:32;4.13;;;1.80;;
13374;SDS011;6756;51.354;15.754;2023-07-31T10:30:34;2.73;;;1.70;;
13374;SDS011;6756;51.354;15.754;2023-07-31T10:34:38;3.67;;;1.73;;
13374;SDS011;6756;51.354;15.754;2023-07-31T10:38:40;2.23;;;1.70;;
13374;SDS011;6756;51.354;15.754;2023-07-31T10:46:55;2.53;;;1.50;;
13374;SDS011;6756;51.354;15.754;2023-07-31T10:50:56;2.60;;;1.40;;
13374;SDS011;6756;51.354;15.754;2023-07-31T10:59:16;3.47;;;1.53;;
13374;SDS011;6756;51.354;15.754;2023-07-31T11:03:18;3.93;;;1.77;;
13374;SDS011;6756;51.354;15.754;2023-07-31T11:07:22;3.80;;;1.60;;
13374;SDS011;6756;51.354;15.754;2023-07-31T11:11:23;3.13;;;1.50;;
13374;SDS011;6756;51.354;15.754;2023-07-31T11:15:26;3.50;;;1.43;;
13374;SDS011;6756;51.354;15.754;2023-07-31T11:19:27;2.23;;;1.47;;
13374;SDS011;6756;51.354;15.754;2023-07-31T11:23:27;2.30;;;1.57;;
13374;SDS011;6756;51.354;15.754;2023-07-31T11:27:28;2.27;;;1.30;;
13374;SDS011;6756;51.354;15.754;2023-07-31T11:31:29;4.63;;;1.63;;
13374;SDS011;6756;51.354;15.754;2023-07-31T11:35:31;4.30;;;1.77;;
13374;SDS011;6756;51.354;15.754;2023-07-31T11:39:36;4.80;;;1.57;;
13374;SDS011;6756;51.354;15.754;2023-07-31T11:43:36;3.30;;;2.00;;
13374;SDS011;6756;51.354;15.754;2023-07-31T11:47:37;3.60;;;1.80;;
13374;SDS011;6756;51.354;15.754;2023-07-31T11:51:38;3.73;;;2.10;;
13374;SDS011;6756;51.354;15.754;2023-07-31T11:55:39;2.03;;;1.50;;
13374;SDS011;6756;51.354;15.754;2023-07-31T11:59:40;5.90;;;2.17;;
13374;SDS011;6756;51.354;15.754;2023-07-31T12:03:41;3.87;;;1.70;;
13374;SDS011;6756;51.354;15.754;2023-07-31T12:07:46;4.80;;;2.00;;
13374;SDS011;6756;51.354;15.754;2023-07-31T12:11:49;3.43;;;1.90;;
13374;SDS011;6756;51.354;15.754;2023-07-31T12:15:53;4.30;;;1.50;;
13374;SDS011;6756;51.354;15.754;2023-07-31T12:19:56;2.03;;;1.77;;
13374;SDS011;6756;51.354;15.754;2023-07-31T12:24:01;2.90;;;1.70;;
13374;SDS011;6756;51.354;15.754;2023-07-31T12:28:06;5.93;;;1.93;;
13374;SDS011;6756;51.354;15.754;2023-07-31T12:32:21;2.90;;;1.70;;
13374;SDS011;6756;51.354;15.754;2023-07-31T12:36:24;5.77;;;2.00;;
13374;SDS011;6756;51.354;15.754;2023-07-31T12:40:24;2.77;;;1.70;;
13374;SDS011;6756;51.354;15.754;2023-07-31T12:44:25;4.23;;;1.53;;
13374;SDS011;6756;51.354;15.754;2023-07-31T12:48:26;5.23;;;1.83;;
13374;SDS011;6756;51.354;15.754;2023-07-31T12:52:27;2.80;;;1.83;;
13374;SDS011;6756;51.354;15.754;2023-07-31T12:56:27;3.40;;;1.80;;
13374;SDS011;6756;51.354;15.754;2023-07-31T13:00:28;3.57;;;1.80;;
13374;SDS011;6756;51.354;15.754;2023-07-31T13:04:29;2.90;;;1.80;;
13374;SDS011;6756;51.354;15.754;2023-07-31T13:08:30;3.03;;;1.97;;
13374;SDS011;6756;51.354;15.754;2023-07-31T13:12:30;3.20;;;1.80;;
13374;SDS011;6756;51.354;15.754;2023-07-31T13:16:31;4.90;;;1.77;;
13374;SDS011;6756;51.354;15.754;2023-07-31T13:20:32;4.17;;;1.87;;
13374;SDS011;6756;51.354;15.754;2023-07-31T13:24:33;2.27;;;1.80;;
13374;SDS011;6756;51.354;15.754;2023-07-31T13:28:33;3.20;;;1.90;;
13374;SDS011;6756;51.354;15.754;2023-07-31T13:32:34;5.37;;;1.93;;
13374;SDS011;6756;51.354;15.754;2023-07-31T13:36:38;3.90;;;2.20;;
13374;SDS011;6756;51.354;15.754;2023-07-31T13:40:39;3.38;;;1.80;;
13374;SDS011;6756;51.354;15.754;2023-07-31T13:44:40;3.85;;;1.65;;
13374;SDS011;6756;51.354;15.754;2023-07-31T13:48:42;5.07;;;1.80;;
13374;SDS011;6756;51.354;15.754;2023-07-31T13:52:42;4.13;;;2.28;;
13374;SDS011;6756;51.354;15.754;2023-07-31T13:56:44;3.33;;;1.98;;
13374;SDS011;6756;51.354;15.754;2023-07-31T14:00:45;4.50;;;2.22;;
13374;SDS011;6756;51.354;15.754;2023-07-31T14:04:46;3.15;;;2.00;;
13374;SDS011;6756;51.354;15.754;2023-07-31T14:08:46;4.57;;;2.17;;
13374;SDS011;6756;51.354;15.754;2023-07-31T14:12:47;2.15;;;1.65;;
13374;SDS011;6756;51.354;15.754;2023-07-31T14:16:48;3.53;;;1.67;;
13374;SDS011;6756;51.354;15.754;2023-07-31T14:20:49;5.20;;;2.03;;
13374;SDS011;6756;51.354;15.754;2023-07-31T14:24:50;3.77;;;1.70;;
13374;SDS011;6756;51.354;15.754;2023-07-31T14:28:50;3.77;;;1.80;;
13374;SDS011;6756;51.354;15.754;2023-07-31T14:32:51;2.60;;;1.50;;
13374;SDS011;6756;51.354;15.754;2023-07-31T14:36:52;2.90;;;1.70;;
13374;SDS011;6756;51.354;15.754;2023-07-31T14:40:53;2.13;;;1.70;;
13374;SDS011;6756;51.354;15.754;2023-07-31T14:44:53;3.17;;;2.07;;
13374;SDS011;6756;51.354;15.754;2023-07-31T14:48:54;4.77;;;1.73;;
13374;SDS011;6756;51.354;15.754;2023-07-31T14:52:55;2.33;;;1.90;;
13374;SDS011;6756;51.354;15.754;2023-07-31T14:56:56;2.87;;;1.70;;
13374;SDS011;6756;51.354;15.754;2023-07-31T15:00:56;3.13;;;1.40;;
13374;SDS011;6756;51.354;15.754;2023-07-31T15:04:57;2.30;;;1.67;;
13374;SDS011;6756;51.354;15.754;2023-07-31T15:08:58;3.00;;;1.97;;
13374;SDS011;6756;51.354;15.754;2023-07-31T15:12:59;1.87;;;1.47;;
13374;SDS011;6756;51.354;15.754;2023-07-31T15:17:01;4.20;;;2.00;;
13374;SDS011;6756;51.354;15.754;2023-07-31T15:21:02;3.33;;;1.70;;
13374;SDS011;6756;51.354;15.754;2023-07-31T15:25:03;3.13;;;1.60;;
13374;SDS011;6756;51.354;15.754;2023-07-31T15:29:04;5.27;;;1.73;;
13374;SDS011;6756;51.354;15.754;2023-07-31T15:33:09;3.13;;;1.57;;
13374;SDS011;6756;51.354;15.754;2023-07-31T15:37:10;4.03;;;2.03;;
13374;SDS011;6756;51.354;15.754;2023-07-31T15:41:10;3.33;;;1.50;;
13374;SDS011;6756;51.354;15.754;2023-07-31T15:45:11;3.23;;;1.23;;
13374;SDS011;6756;51.354;15.754;2023-07-31T15:49:12;2.80;;;1.33;;
13374;SDS011;6756;51.354;15.754;2023-07-31T15:53:16;2.13;;;1.40;;
13374;SDS011;6756;51.354;15.754;2023-07-31T15:57:17;2.43;;;1.70;;
13374;SDS011;6756;51.354;15.754;2023-07-31T16:01:18;2.97;;;1.63;;
13374;SDS011;6756;51.354;15.754;2023-07-31T16:05:19;3.27;;;1.77;;
13374;SDS011;6756;51.354;15.754;2023-07-31T16:09:19;3.03;;;1.70;;
13374;SDS011;6756;51.354;15.754;2023-07-31T16:13:20;1.77;;;1.40;;
13374;SDS011;6756;51.354;15.754;2023-07-31T16:17:21;5.00;;;1.57;;
13374;SDS011;6756;51.354;15.754;2023-07-31T16:21:22;2.27;;;1.60;;
13374;SDS011;6756;51.354;15.754;2023-07-31T16:25:23;2.33;;;1.70;;
13374;SDS011;6756;51.354;15.754;2023-07-31T16:29:23;3.30;;;1.73;;
13374;SDS011;6756;51.354;15.754;2023-07-31T16:33:24;5.33;;;1.93;;
13374;SDS011;6756;51.354;15.754;2023-07-31T16:37:25;3.63;;;1.33;;
13374;SDS011;6756;51.354;15.754;2023-07-31T16:41:25;3.53;;;1.87;;
13374;SDS011;6756;51.354;15.754;2023-07-31T16:45:26;2.13;;;1.43;;
13374;SDS011;6756;51.354;15.754;2023-07-31T16:49:27;2.17;;;1.40;;
13374;SDS011;6756;51.354;15.754;2023-07-31T16:53:27;3.90;;;1.60;;
13374;SDS011;6756;51.354;15.754;2023-07-31T16:57:28;3.07;;;1.77;;
13374;SDS011;6756;51.354;15.754;2023-07-31T17:01:29;2.57;;;1.60;;
13374;SDS011;6756;51.354;15.754;2023-07-31T17:05:32;2.07;;;1.33;;
13374;SDS011;6756;51.354;15.754;2023-07-31T17:09:34;4.43;;;1.90;;
13374;SDS011;6756;51.354;15.754;2023-07-31T17:13:34;2.50;;;1.73;;
13374;SDS011;6756;51.354;15.754;2023-07-31T17:17:35;3.53;;;2.00;;
13374;SDS011;6756;51.354;15.754;2023-07-31T17:21:36;2.73;;;1.60;;
13374;SDS011;6756;51.354;15.754;2023-07-31T17:25:39;1.73;;;1.40;;
13374;SDS011;6756;51.354;15.754;2023-07-31T17:29:40;3.17;;;1.80;;
13374;SDS011;6756;51.354;15.754;2023-07-31T17:33:41;2.40;;;1.40;;
13374;SDS011;6756;51.354;15.754;2023-07-31T17:37:42;2.80;;;1.43;;
13374;SDS011;6756;51.354;15.754;2023-07-31T17:41:43;3.53;;;1.70;;
13374;SDS011;6756;51.354;15.754;2023-07-31T17:45:43;2.67;;;1.60;;
13374;SDS011;6756;51.354;15.754;2023-07-31T17:49:44;2.53;;;1.47;;
13374;SDS011;6756;51.354;15.754;2023-07-31T17:53:45;2.50;;;1.20;;
13374;SDS011;6756;51.354;15.754;2023-07-31T17:57:46;4.93;;;1.70;;
13374;SDS011;6756;51.354;15.754;2023-07-31T18:01:46;2.33;;;1.33;;
13374;SDS011;6756;51.354;15.754;2023-07-31T18:05:47;4.37;;;1.50;;
13374;SDS011;6756;51.354;15.754;2023-07-31T18:09:48;2.73;;;1.30;;
13374;SDS011;6756;51.354;15.754;2023-07-31T18:13:49;1.90;;;1.47;;
13374;SDS011;6756;51.354;15.754;2023-07-31T18:17:50;2.87;;;1.37;;
13374;SDS011;6756;51.354;15.754;2023-07-31T18:21:50;3.47;;;1.50;;
13374;SDS011;6756;51.354;15.754;2023-07-31T18:25:51;2.27;;;1.90;;
13374;SDS011;6756;51.354;15.754;2023-07-31T18:29:52;2.00;;;1.30;;
13374;SDS011;6756;51.354;15.754;2023-07-31T18:33:53;2.40;;;1.53;;
13374;SDS011;6756;51.354;15.754;2023-07-31T18:37:54;1.47;;;1.20;;
13374;SDS011;6756;51.354;15.754;2023-07-31T18:41:54;1.93;;;1.30;;
13374;SDS011;6756;51.354;15.754;2023-07-31T18:45:55;1.40;;;1.03;;
13374;SDS011;6756;51.354;15.754;2023-07-31T18:49:56;2.60;;;1.50;;
13374;SDS011;6756;51.354;15.754;2023-07-31T18:53:57;2.10;;;1.40;;
13374;SDS011;6756;51.354;15.754;2023-07-31T18:57:57;3.63;;;1.50;;
13374;SDS011;6756;51.354;15.754;2023-07-31T19:01:58;2.53;;;1.60;;
13374;SDS011;6756;51.354;15.754;2023-07-31T19:06:00;2.63;;;1.50;;
13374;SDS011;6756;51.354;15.754;2023-07-31T19:10:04;3.00;;;1.60;;
13374;SDS011;6756;51.354;15.754;2023-07-31T19:14:05;3.00;;;1.80;;
13374;SDS011;6756;51.354;15.754;2023-07-31T19:18:06;2.53;;;1.60;;
13374;SDS011;6756;51.354;15.754;2023-07-31T19:22:07;3.03;;;1.63;;
13374;SDS011;6756;51.354;15.754;2023-07-31T19:26:08;2.53;;;1.53;;
13374;SDS011;6756;51.354;15.754;2023-07-31T19:30:10;2.93;;;1.73;;
13374;SDS011;6756;51.354;15.754;2023-07-31T19:34:11;1.87;;;1.10;;
13374;SDS011;6756;51.354;15.754;2023-07-31T19:38:12;2.83;;;1.90;;
13374;SDS011;6756;51.354;15.754;2023-07-31T19:42:13;3.27;;;1.87;;
13374;SDS011;6756;51.354;15.754;2023-07-31T19:46:14;3.57;;;1.90;;
13374;SDS011;6756;51.354;15.754;2023-07-31T19:50:15;2.40;;;2.00;;
13374;SDS011;6756;51.354;15.754;2023-07-31T19:54:16;4.03;;;1.70;;
13374;SDS011;6756;51.354;15.754;2023-07-31T19:58:17;2.33;;;1.80;;
13374;SDS011;6756;51.354;15.754;2023-07-31T20:02:18;2.50;;;1.73;;
13374;SDS011;6756;51.354;15.754;2023-07-31T20:06:18;7.27;;;2.20;;
13374;SDS011;6756;51.354;15.754;2023-07-31T20:10:19;3.20;;;1.90;;
13374;SDS011;6756;51.354;15.754;2023-07-31T20:14:20;2.53;;;1.60;;
13374;SDS011;6756;51.354;15.754;2023-07-31T20:18:21;4.93;;;2.00;;
13374;SDS011;6756;51.354;15.754;2023-07-31T20:22:22;4.10;;;2.10;;
13374;SDS011;6756;51.354;15.754;2023-07-31T20:26:23;2.93;;;1.70;;
13374;SDS011;6756;51.354;15.754;2023-07-31T20:30:24;2.30;;;1.37;;
13374;SDS011;6756;51.354;15.754;2023-07-31T20:34:24;2.33;;;1.73;;
13374;SDS011;6756;51.354;15.754;2023-07-31T20:38:25;1.97;;;1.57;;
13374;SDS011;6756;51.354;15.754;2023-07-31T20:42:26;2.83;;;1.80;;
13374;SDS011;6756;51.354;15.754;2023-07-31T20:46:27;2.07;;;1.80;;
13374;SDS011;6756;51.354;15.754;2023-07-31T20:50:28;2.23;;;1.40;;
13374;SDS011;6756;51.354;15.754;2023-07-31T20:54:31;2.93;;;1.90;;
13374;SDS011;6756;51.354;15.754;2023-07-31T20:58:32;2.23;;;1.50;;
13374;SDS011;6756;51.354;15.754;2023-07-31T21:02:33;2.70;;;1.43;;
13374;SDS011;6756;51.354;15.754;2023-07-31T21:06:33;2.87;;;2.00;;
13374;SDS011;6756;51.354;15.754;2023-07-31T21:10:37;2.40;;;1.93;;
13374;SDS011;6756;51.354;15.754;2023-07-31T21:14:42;2.87;;;1.90;;
13374;SDS011;6756;51.354;15.754;2023-07-31T21:18:42;2.93;;;1.77;;
13374;SDS011;6756;51.354;15.754;2023-07-31T21:22:43;4.47;;;1.90;;
13374;SDS011;6756;51.354;15.754;2023-07-31T21:26:44;2.17;;;1.60;;
13374;SDS011;6756;51.354;15.754;2023-07-31T21:30:45;2.77;;;2.07;;
13374;SDS011;6756;51.354;15.754;2023-07-31T21:34:46;2.87;;;1.97;;
13374;SDS011;6756;51.354;15.754;2023-07-31T21:38:47;3.77;;;1.73;;
13374;SDS011;6756;51.354;15.754;2023-07-31T21:42:48;2.83;;;1.70;;
13374;SDS011;6756;51.354;15.754;2023-07-31T21:46:49;2.33;;;1.80;;
13374;SDS011;6756;51.354;15.754;2023-07-31T21:50:50;2.30;;;2.03;;
13374;SDS011;6756;51.354;15.754;2023-07-31T21:54:51;3.37;;;1.83;;
13374;SDS011;6756;51.354;15.754;2023-07-31T21:58:52;2.97;;;1.90;;
13374;SDS011;6756;51.354;15.754;2023-07-31T22:02:53;3.27;;;1.77;;
13374;SDS011;6756;51.354;15.754;2023-07-31T22:06:54;2.57;;;1.80;;
13374;SDS011;6756;51.354;15.754;2023-07-31T22:10:54;2.90;;;1.80;;
13374;SDS011;6756;51.354;15.754;2023-07-31T22:14:55;5.03;;;1.90;;
13374;SDS011;6756;51.354;15.754;2023-07-31T22:18:56;2.83;;;1.80;;
13374;SDS011;6756;51.354;15.754;2023-07-31T22:22:57;3.27;;;1.90;;
13374;SDS011;6756;51.354;15.754;2023-07-31T22:26:57;2.60;;;1.70;;
13374;SDS011;6756;51.354;15.754;2023-07-31T22:30:58;2.90;;;2.10;;
13374;SDS011;6756;51.354;15.754;2023-07-31T22:34:59;3.93;;;2.17;;
13374;SDS011;6756;51.354;15.754;2023-07-31T22:39:00;4.70;;;2.43;;
13374;SDS011;6756;51.354;15.754;2023-07-31T22:43:01;2.40;;;1.80;;
13374;SDS011;6756;51.354;15.754;2023-07-31T22:47:01;2.63;;;1.83;;
13374;SDS011;6756;51.354;15.754;2023-07-31T22:51:04;3.23;;;2.00;;
13374;SDS011;6756;51.354;15.754;2023-07-31T22:55:06;3.87;;;2.30;;
13374;SDS011;6756;51.354;15.754;2023-07-31T22:59:07;2.60;;;2.03;;
13374;SDS011;6756;51.354;15.754;2023-07-31T23:03:08;2.53;;;1.93;;
13374;SDS011;6756;51.354;15.754;2023-07-31T23:07:08;2.50;;;1.80;;
13374;SDS011;6756;51.354;15.754;2023-07-31T23:11:09;3.73;;;1.97;;
13374;SDS011;6756;51.354;15.754;2023-07-31T23:15:10;2.37;;;2.07;;
13374;SDS011;6756;51.354;15.754;2023-07-31T23:19:11;3.83;;;2.43;;
13374;SDS011;6756;51.354;15.754;2023-07-31T23:23:12;2.30;;;2.00;;
13374;SDS011;6756;51.354;15.754;2023-07-31T23:27:12;2.87;;;2.00;;
13374;SDS011;6756;51.354;15.754;2023-07-31T23:31:13;2.63;;;1.90;;
13374;SDS011;6756;51.354;15.754;2023-07-31T23:35:14;3.03;;;2.20;;
13374;SDS011;6756;51.354;15.754;2023-07-31T23:39:15;3.73;;;2.00;;
13374;SDS011;6756;51.354;15.754;2023-07-31T23:43:15;2.10;;;1.80;;
13374;SDS011;6756;51.354;15.754;2023-07-31T23:47:16;2.13;;;1.77;;
13374;SDS011;6756;51.354;15.754;2023-07-31T23:51:17;2.77;;;1.80;;
13374;SDS011;6756;51.354;15.754;2023-07-31T23:55:18;3.10;;;2.13;;
13374;SDS011;6756;51.354;15.754;2023-07-31T23:59:19;1.87;;;1.60;;
